Terminal Aerodrome Forecast
Issued by NWS

Home | Current Version | Previous Version | Text Only | Print | Product List | Glossary On
Versions: 1 2 3 4 5 6 7 8 9 10 11 12 13 14 15 16 17 18 19 20 21 22 23 24 25 26 27 28 29
000
FTUS41 KOKX 070830 AAA
TAFGON
TAF AMD
KGON 070830Z 0709/0806 VRB04KT 4SM BR SCT004 BKN008
      TEMPO 0709/0713 BKN004
     FM071300 16008KT 4SM BR SCT007 BKN015
     FM071500 17010KT 6SM HZ SCT015 BKN040
     FM072000 20012KT P6SM BKN050
     FM080100 21006KT P6SM SCT050 BKN250=

USA.gov is the U.S. government's official web portal to all federal, state and local government web resources and services.